CST,Max TemperatureF,Mean TemperatureF,Min TemperatureF,Max Dew PointF,MeanDew PointF,Min DewpointF,Max Humidity, Mean Humidity, Min Humidity, Max Sea Level PressureIn, Mean Sea Level PressureIn, Min Sea Level PressureIn, Max VisibilityMiles, Mean VisibilityMiles, Min VisibilityMiles, Max Wind SpeedMPH, Mean Wind SpeedMPH, Max Gust SpeedMPH,PrecipitationIn, CloudCover, Events, WindDirDegrees
2011-11-1,71,51,30,41,35,28,92,63,33,30.19,30.15,30.09,10,9,6,18,11,24,0.00,0,,160
2011-11-2,72,60,47,45,39,34,71,53,35,30.14,30.06,29.95,10,10,10,28,15,33,0.00,0,,176
2011-11-3,51,48,45,48,45,39,100,84,68,30.11,29.90,29.82,10,5,1,25,15,39,1.24,7,Rain,63
2011-11-4,55,45,35,42,35,30,86,70,54,30.30,30.23,30.11,10,10,10,20,11,25,0.00,0,,48
2011-11-5,59,45,31,39,33,28,92,70,47,30.29,30.19,30.09,10,10,10,16,10,20,0.00,0,,124
2011-11-6,59,50,41,44,42,34,86,72,57,30.16,30.12,30.09,10,10,8,32,17,39,T,5,,172
2011-11-7,57,54,51,56,52,46,100,95,89,30.24,30.18,30.09,10,5,1,24,7,28,0.44,8,Rain,151
2011-11-8,67,59,51,58,55,50,100,84,68,30.07,29.97,29.85,10,9,6,29,15,39,0.10,6,Rain,175
2011-11-9,60,47,33,58,44,31,93,85,76,30.10,29.85,29.63,10,9,4,36,20,46,0.15,6,Rain,224
2011-11-10,43,35,26,31,28,25,92,75,57,30.13,30.10,30.07,10,10,9,25,12,32,T,3,Snow,267
2011-11-11,49,37,24,36,28,21,92,71,49,30.12,29.97,29.83,10,10,10,22,11,28,0.00,0,,191
2011-11-12,60,47,34,45,38,32,92,66,40,29.91,29.82,29.68,10,10,10,30,18,37,0.00,1,,188
2011-11-13,71,62,52,58,52,45,87,70,53,29.68,29.58,29.49,10,10,9,41,23,54,T,3,Rain,194
2011-11-14,72,60,48,63,51,41,93,83,72,29.77,29.63,29.49,10,9,0,37,11,48,0.59,5,Fog-Rain-Thunderstorm,276
2011-11-15,61,51,41,52,48,39,100,85,69,29.86,29.81,29.77,10,6,0,20,10,24,0.00,4,Fog,208
2011-11-16,47,38,29,36,24,19,100,69,37,30.22,30.09,29.90,10,10,10,23,15,31,0.00,1,,329
2011-11-17,42,32,22,23,18,13,88,59,30,30.31,30.28,30.22,10,10,10,25,12,32,0.00,1,,245
2011-11-18,52,41,29,24,20,17,69,48,27,30.28,30.13,29.97,10,10,10,35,20,44,0.00,1,,178
2011-11-19,60,51,41,53,41,26,86,68,49,30.02,29.92,29.83,10,10,10,30,20,38,T,7,,186
2011-11-20,58,48,38,54,39,33,93,82,70,30.26,30.16,29.98,10,10,7,21,12,26,0.01,6,,356
2011-11-21,48,44,39,45,40,36,93,86,79,30.25,30.19,30.12,10,8,2,18,12,22,0.00,8,,55
2011-11-22,45,43,40,45,42,39,100,95,89,30.11,29.93,29.74,9,4,2,24,14,29,0.99,8,Rain,25
2011-11-23,47,40,33,41,37,32,100,86,71,30.31,30.22,30.06,6,3,1,17,9,22,0.00,4,,263
2011-11-24,48,45,41,43,41,39,100,93,86,30.32,30.26,30.17,9,4,2,22,15,28,0.00,7,,192
2011-11-25,61,50,39,46,42,37,100,78,55,30.14,30.05,29.96,10,6,2,28,18,36,0.00,4,,184
2011-11-26,62,52,42,55,48,40,100,84,67,29.99,29.87,29.80,10,9,5,29,17,36,0.41,6,Rain,201
2011-11-27,42,39,35,40,36,32,96,91,85,30.12,29.99,29.86,10,9,5,21,15,26,0.30,8,Rain,325
2011-11-28,39,37,34,36,33,30,96,88,79,30.12,29.99,29.82,10,8,2,31,19,38,0.40,8,Rain-Snow,8
2011-11-29,43,36,29,37,34,24,92,81,69,30.02,29.84,29.72,10,9,3,32,23,43,0.26,7,Rain,356
2011-11-30,39,31,22,26,23,19,92,73,54,30.22,30.13,30.02,10,10,9,14,7,18,0.00,0,,260